createdAt,value
2018-10-07T00:00:26.908Z,12.15
2018-10-07T00:02:55.906Z,11.15
2018-10-07T00:05:24.849Z,11.53
2018-10-07T00:07:54.188Z,12.05
2018-10-07T00:10:23.117Z,11.70
2018-10-07T00:12:52.040Z,14.33
2018-10-07T00:15:20.963Z,14.43
2018-10-07T00:17:49.896Z,13.50
2018-10-07T00:20:18.823Z,12.35
2018-10-07T00:22:47.735Z,11.97
2018-10-07T00:25:16.678Z,12.73
2018-10-07T00:27:45.591Z,12.23
2018-10-07T00:30:14.521Z,11.48
2018-10-07T00:32:43.489Z,11.05
2018-10-07T00:35:12.397Z,11.00
2018-10-07T00:37:41.319Z,11.90
2018-10-07T00:40:10.232Z,13.28
2018-10-07T00:42:39.176Z,11.15
2018-10-07T00:45:08.144Z,11.78
2018-10-07T00:47:37.069Z,12.30
2018-10-07T00:50:05.990Z,10.95
2018-10-07T00:52:34.958Z,12.23
2018-10-07T00:55:03.903Z,12.05
2018-10-07T00:57:33.170Z,13.98
2018-10-07T01:00:02.106Z,11.88
2018-10-07T01:02:31.011Z,12.03
2018-10-07T01:05:00.281Z,12.33
2018-10-07T01:07:29.237Z,12.98
2018-10-07T01:09:58.174Z,12.33
2018-10-07T01:12:27.080Z,14.30
2018-10-07T01:14:55.928Z,12.43
2018-10-07T01:17:25.529Z,12.73
2018-10-07T01:19:54.524Z,11.65
2018-10-07T01:22:23.516Z,14.60
2018-10-07T01:24:52.430Z,12.50
2018-10-07T01:27:21.349Z,10.13
2018-10-07T01:29:50.276Z,12.30
2018-10-07T01:32:19.195Z,13.32
2018-10-07T01:34:48.095Z,11.20
2018-10-07T01:37:17.002Z,11.25
2018-10-07T01:39:46.273Z,11.35
2018-10-07T01:42:15.190Z,12.23
2018-10-07T01:44:44.157Z,14.30
2018-10-07T01:47:13.076Z,12.60
2018-10-07T01:49:41.985Z,11.00
2018-10-07T01:52:10.907Z,11.85
2018-10-07T01:54:39.939Z,9.98
2018-10-07T01:57:09.037Z,11.93
2018-10-07T01:59:38.069Z,11.05
2018-10-07T02:02:07.245Z,11.88
2018-10-07T02:04:36.323Z,13.38
2018-10-07T02:07:05.311Z,11.85
2018-10-07T02:09:34.400Z,12.07
2018-10-07T02:12:03.377Z,13.32
2018-10-07T02:14:32.330Z,12.20
2018-10-07T02:17:01.242Z,12.90
2018-10-07T02:19:30.189Z,13.25
2018-10-07T02:21:59.149Z,12.43
2018-10-07T02:24:28.094Z,13.18
2018-10-07T02:26:57.081Z,12.98
2018-10-07T02:29:26.043Z,14.07
2018-10-07T02:31:54.996Z,11.73
2018-10-07T02:34:23.960Z,12.05
2018-10-07T02:36:52.917Z,11.22
2018-10-07T02:39:21.839Z,12.18
2018-10-07T02:41:50.784Z,11.57
2018-10-07T02:44:19.698Z,11.75
2018-10-07T02:46:48.833Z,15.13
2018-10-07T02:49:17.800Z,12.75
2018-10-07T02:51:47.352Z,18.10
2018-10-07T02:54:16.407Z,15.30
2018-10-07T02:56:45.447Z,13.80
2018-10-07T02:59:15.340Z,12.25
2018-10-07T03:01:45.234Z,14.35
2018-10-07T03:04:14.248Z,13.62
2018-10-07T03:06:43.548Z,14.68
2018-10-07T03:09:12.480Z,13.25
2018-10-07T03:11:41.380Z,11.18
2018-10-07T03:14:10.336Z,12.15
2018-10-07T03:16:39.267Z,14.68
2018-10-07T03:19:08.195Z,12.13
2018-10-07T03:21:37.151Z,12.03
2018-10-07T03:24:06.148Z,11.78
2018-10-07T03:26:35.148Z,11.95
2018-10-07T03:29:04.434Z,10.72
2018-10-07T03:31:33.345Z,12.98
2018-10-07T03:34:02.288Z,13.58
2018-10-07T03:36:31.225Z,13.30
2018-10-07T03:39:00.173Z,12.65
2018-10-07T03:41:29.107Z,17.80
2018-10-07T03:43:58.053Z,11.57
2018-10-07T03:46:26.975Z,12.85
2018-10-07T03:48:55.923Z,11.93
2018-10-07T03:51:24.875Z,12.23
2018-10-07T03:53:53.835Z,12.30
2018-10-07T03:56:22.764Z,14.40
2018-10-07T03:58:51.719Z,13.50
2018-10-07T04:01:20.715Z,14.53
2018-10-07T04:03:49.655Z,14.45
2018-10-07T04:06:18.612Z,17.92
2018-10-07T04:08:47.590Z,15.70
2018-10-07T04:11:16.535Z,18.15
2018-10-07T04:13:45.518Z,14.28
2018-10-07T04:16:14.466Z,14.87
2018-10-07T04:18:43.410Z,16.12
2018-10-07T04:21:12.342Z,15.48
2018-10-07T04:23:41.278Z,16.93
2018-10-07T04:26:10.210Z,14.35
2018-10-07T04:28:39.150Z,15.63
2018-10-07T04:31:08.210Z,16.15
2018-10-07T04:33:37.186Z,17.92
2018-10-07T04:36:06.122Z,15.00
2018-10-07T04:38:35.082Z,15.75
2018-10-07T04:41:04.015Z,17.50
2018-10-07T04:43:32.908Z,15.95
2018-10-07T04:46:01.843Z,17.55
2018-10-07T04:48:30.772Z,16.37
2018-10-07T04:50:59.706Z,17.25
2018-10-07T04:53:28.661Z,15.80
2018-10-07T04:55:57.728Z,15.53
2018-10-07T04:58:26.668Z,18.10
2018-10-07T05:00:55.619Z,16.40
2018-10-07T05:03:24.540Z,19.62
2018-10-07T05:05:53.544Z,18.82
2018-10-07T05:08:22.754Z,16.85
2018-10-07T05:10:53.916Z,18.07
2018-10-07T05:13:44.820Z,20.62
2018-10-07T05:16:17.041Z,16.17
2018-10-07T05:18:45.999Z,17.98
2018-10-07T05:21:15.464Z,18.82
2018-10-07T05:23:44.396Z,21.20
2018-10-07T05:26:13.392Z,21.23
2018-10-07T05:28:42.443Z,20.00
2018-10-07T05:31:11.462Z,17.77
2018-10-07T05:33:40.373Z,22.02
2018-10-07T05:36:09.356Z,19.73
2018-10-07T05:38:38.275Z,24.67
2018-10-07T05:41:07.571Z,22.65
2018-10-07T05:43:36.504Z,28.10
2018-10-07T05:46:05.469Z,25.43
2018-10-07T05:48:34.432Z,31.48
2018-10-07T05:51:03.417Z,29.18
2018-10-07T05:53:32.378Z,30.43
2018-10-07T05:56:01.374Z,37.70
2018-10-07T05:58:30.537Z,35.00
2018-10-07T06:01:07.556Z,35.70
2018-10-07T06:03:44.420Z,35.23
2018-10-07T06:06:13.459Z,35.68
2018-10-07T06:08:42.619Z,36.73
2018-10-07T06:11:11.973Z,43.40
2018-10-07T06:13:40.945Z,36.73
2018-10-07T06:16:09.927Z,37.80
2018-10-07T06:18:39.562Z,40.45
2018-10-07T06:21:09.233Z,39.13
2018-10-07T06:23:38.203Z,40.85
2018-10-07T06:26:07.334Z,41.40
2018-10-07T06:28:36.283Z,44.70
2018-10-07T06:31:05.598Z,44.80
2018-10-07T06:33:34.545Z,45.05
2018-10-07T06:36:04.067Z,45.75
2018-10-07T06:38:33.118Z,47.95
2018-10-07T06:41:02.493Z,46.83
2018-10-07T06:43:31.443Z,47.50
2018-10-07T06:46:00.739Z,50.73
2018-10-07T06:48:29.748Z,48.85
2018-10-07T06:50:58.968Z,55.83
2018-10-07T06:53:28.030Z,49.93
2018-10-07T06:55:57.448Z,57.08
2018-10-07T06:58:26.406Z,53.23
2018-10-07T07:00:55.675Z,54.40
2018-10-07T07:03:24.630Z,61.58
2018-10-07T07:05:53.554Z,64.45
2018-10-07T07:08:22.503Z,65.62
2018-10-07T07:10:51.464Z,67.08
2018-10-07T07:13:20.436Z,65.42
2018-10-07T07:15:49.416Z,65.28
2018-10-07T07:18:18.333Z,71.40
2018-10-07T07:20:47.282Z,66.67
2018-10-07T07:23:16.229Z,72.82
2018-10-07T07:25:45.145Z,69.53
2018-10-07T07:28:14.083Z,70.67
2018-10-07T07:30:43.054Z,72.17
2018-10-07T07:33:12.017Z,73.37
2018-10-07T07:35:40.951Z,70.17
2018-10-07T07:38:09.877Z,68.00
2018-10-07T07:40:38.812Z,65.10
2018-10-07T07:43:07.783Z,67.30
2018-10-07T07:45:36.706Z,60.75
2018-10-07T07:48:06.022Z,65.05
2018-10-07T07:50:35.121Z,70.72
2018-10-07T07:53:04.147Z,66.75
2018-10-07T07:55:33.105Z,61.18
2018-10-07T07:58:02.031Z,71.10
2018-10-07T08:00:30.978Z,70.03
2018-10-07T08:02:59.915Z,69.70
2018-10-07T08:05:28.877Z,71.47
2018-10-07T08:07:57.889Z,67.92
2018-10-07T08:10:26.858Z,67.90
2018-10-07T08:12:55.809Z,67.35
2018-10-07T08:15:24.769Z,69.12
2018-10-07T08:17:53.792Z,66.87
2018-10-07T08:20:22.867Z,70.12
2018-10-07T08:22:51.837Z,68.55
2018-10-07T08:25:20.805Z,67.40
2018-10-07T08:27:49.770Z,69.27
2018-10-07T08:30:19.090Z,68.83
2018-10-07T08:32:48.037Z,63.08
2018-10-07T08:35:17.320Z,64.62
2018-10-07T08:37:46.484Z,68.17
2018-10-07T08:40:15.441Z,65.80
2018-10-07T08:42:44.396Z,62.75
2018-10-07T08:45:13.313Z,59.45
2018-10-07T08:47:42.304Z,59.95
2018-10-07T08:50:11.274Z,61.00
2018-10-07T08:52:40.206Z,57.20
2018-10-07T08:55:09.146Z,55.95
2018-10-07T08:57:38.270Z,54.15
2018-10-07T09:00:07.582Z,54.58
2018-10-07T09:02:36.512Z,52.73
2018-10-07T09:05:05.907Z,55.00
2018-10-07T09:07:34.832Z,51.55
2018-10-07T09:10:04.710Z,51.37
2018-10-07T09:12:33.642Z,61.77
2018-10-07T09:15:02.568Z,52.85
2018-10-07T09:17:31.836Z,47.98
2018-10-07T09:20:00.804Z,47.23
2018-10-07T09:22:29.740Z,42.08
2018-10-07T09:24:58.723Z,39.23
2018-10-07T09:27:27.711Z,39.13
2018-10-07T09:29:57.187Z,35.08
2018-10-07T09:32:26.215Z,36.50
2018-10-07T09:34:55.344Z,36.30
2018-10-07T09:37:24.303Z,30.68
2018-10-07T09:39:53.412Z,29.98
2018-10-07T09:42:22.553Z,32.28
2018-10-07T09:44:51.850Z,29.42
2018-10-07T09:47:20.845Z,32.67
2018-10-07T09:49:50.184Z,24.80
2018-10-07T09:52:19.557Z,25.85
2018-10-07T09:54:48.713Z,21.05
2018-10-07T09:57:18.013Z,19.95
2018-10-07T09:59:46.976Z,30.62
2018-10-07T10:02:15.915Z,22.15
2018-10-07T10:04:44.874Z,22.02
2018-10-07T10:07:14.125Z,21.27
2018-10-07T10:09:43.165Z,21.65
2018-10-07T10:12:12.125Z,20.62
2018-10-07T10:14:41.097Z,16.05
2018-10-07T10:17:11.284Z,18.23
2018-10-07T10:19:47.717Z,15.72
2018-10-07T10:22:31.437Z,17.20
2018-10-07T10:25:09.312Z,15.93
2018-10-07T10:28:18.271Z,31.73
2018-10-07T10:30:50.127Z,25.88
2018-10-07T10:33:36.629Z,15.95
2018-10-07T10:36:14.395Z,16.50
2018-10-07T10:38:53.470Z,13.18
2018-10-07T10:41:26.607Z,15.32
2018-10-07T10:43:57.808Z,17.23
2018-10-07T10:46:34.650Z,15.48
2018-10-07T10:49:13.834Z,14.30
2018-10-07T10:51:47.213Z,20.72
2018-10-07T10:56:26.665Z,11.08
2018-10-07T11:01:39.764Z,12.00
2018-10-07T11:04:16.156Z,14.58
2018-10-07T11:06:49.934Z,14.65
2018-10-07T11:10:06.772Z,12.53
2018-10-07T11:12:41.944Z,9.60
2018-10-07T11:15:23.487Z,7.83
2018-10-07T11:18:15.086Z,11.90
2018-10-07T11:21:02.303Z,15.83
2018-10-07T11:23:44.491Z,11.12
2018-10-07T11:26:21.005Z,9.88
2018-10-07T11:30:08.543Z,9.58
2018-10-07T11:32:48.362Z,8.88
2018-10-07T11:35:39.974Z,14.20
2018-10-07T11:38:29.119Z,11.85
2018-10-07T11:41:09.529Z,7.22
2018-10-07T11:43:53.607Z,6.80
2018-10-07T11:48:34.625Z,7.33
2018-10-07T11:51:07.316Z,6.33
2018-10-07T11:53:40.229Z,4.58
2018-10-07T11:56:09.167Z,4.83
2018-10-07T11:58:38.225Z,4.62
2018-10-07T12:01:07.125Z,3.42
2018-10-07T12:03:36.730Z,4.58
2018-10-07T12:06:05.739Z,5.15
2018-10-07T12:08:34.677Z,6.45
2018-10-07T12:11:03.619Z,6.92
2018-10-07T12:13:32.587Z,4.72
2018-10-07T12:16:01.488Z,7.20
2018-10-07T12:18:30.396Z,3.17
2018-10-07T12:20:59.366Z,3.67
2018-10-07T12:23:28.311Z,2.67
2018-10-07T12:25:57.263Z,2.98
2018-10-07T12:28:26.161Z,3.08
2018-10-07T12:30:55.054Z,2.33
2018-10-07T12:33:23.999Z,2.20
2018-10-07T12:35:52.953Z,1.90
2018-10-07T12:38:22.337Z,4.87
2018-10-07T12:40:51.295Z,1.90
2018-10-07T12:43:20.209Z,2.40
2018-10-07T12:45:49.111Z,3.70
2018-10-07T12:48:18.091Z,2.20
2018-10-07T12:50:47.038Z,2.17
2018-10-07T12:53:15.981Z,2.83
2018-10-07T12:55:44.908Z,1.32
2018-10-07T12:58:13.812Z,1.50
2018-10-07T13:00:42.731Z,3.98
2018-10-07T13:03:11.638Z,2.35
2018-10-07T13:05:40.572Z,2.85
2018-10-07T13:08:09.479Z,2.45
2018-10-07T13:10:38.390Z,3.58
2018-10-07T13:13:07.354Z,3.65
2018-10-07T13:15:36.284Z,3.17
2018-10-07T13:18:05.190Z,3.95
2018-10-07T13:20:34.107Z,4.00
2018-10-07T13:23:03.006Z,3.80
2018-10-07T13:25:31.955Z,2.67
2018-10-07T13:28:00.852Z,2.85
2018-10-07T13:30:29.764Z,4.12
2018-10-07T13:32:58.718Z,2.42
2018-10-07T13:35:27.822Z,2.83
2018-10-07T13:37:56.714Z,4.15
2018-10-07T13:40:25.615Z,3.98
2018-10-07T13:42:54.538Z,3.12
2018-10-07T13:45:23.453Z,2.35
2018-10-07T13:47:52.386Z,2.22
2018-10-07T13:50:21.303Z,1.80
2018-10-07T13:52:50.260Z,3.45
2018-10-07T13:55:19.174Z,1.80
2018-10-07T13:57:48.108Z,2.22
2018-10-07T14:00:17.059Z,2.42
2018-10-07T14:02:46.038Z,2.20
2018-10-07T14:05:14.992Z,1.80
2018-10-07T14:07:43.936Z,1.98
2018-10-07T14:10:12.822Z,2.08
2018-10-07T14:12:41.752Z,1.25
2018-10-07T14:15:10.735Z,1.30
2018-10-07T14:17:39.658Z,1.55
2018-10-07T14:20:08.928Z,2.55
2018-10-07T14:22:37.910Z,2.15
2018-10-07T14:25:07.323Z,2.15
2018-10-07T14:27:36.308Z,2.15
2018-10-07T14:30:05.296Z,1.27
2018-10-07T14:32:34.221Z,0.93
2018-10-07T14:35:03.144Z,0.98
2018-10-07T14:37:32.148Z,1.20
2018-10-07T14:40:01.077Z,1.30
2018-10-07T14:42:29.973Z,2.22
2018-10-07T14:44:58.953Z,0.80
2018-10-07T14:47:27.890Z,1.32
2018-10-07T14:49:56.811Z,0.80
2018-10-07T14:52:25.761Z,1.00
2018-10-07T14:54:54.660Z,0.60
2018-10-07T14:57:23.580Z,0.80
2018-10-07T14:59:52.480Z,0.70
2018-10-07T15:02:21.411Z,2.70
2018-10-07T15:04:50.317Z,0.70
2018-10-07T15:07:19.629Z,1.35
2018-10-07T15:09:48.563Z,0.78
2018-10-07T15:12:17.473Z,2.02
2018-10-07T15:14:46.403Z,0.65
2018-10-07T15:17:15.359Z,2.35
2018-10-07T15:19:44.262Z,0.70
2018-10-07T15:22:13.177Z,0.90
2018-10-07T15:24:42.088Z,2.00
2018-10-07T15:27:10.995Z,2.58
2018-10-07T15:29:40.023Z,3.33
2018-10-07T15:32:09.140Z,1.15
2018-10-07T15:34:38.077Z,0.80
2018-10-07T15:37:07.074Z,6.70
2018-10-07T15:39:36.038Z,1.40
2018-10-07T15:42:04.961Z,4.70
2018-10-07T15:44:33.900Z,1.77
2018-10-07T15:47:03.625Z,4.65
2018-10-07T15:49:32.538Z,2.55
2018-10-07T15:52:01.431Z,1.55
2018-10-07T15:54:30.588Z,1.07
2018-10-07T15:56:59.575Z,0.82
2018-10-07T15:59:28.502Z,0.85
2018-10-07T16:01:57.422Z,5.97
2018-10-07T16:04:26.315Z,1.65
2018-10-07T16:06:55.250Z,0.88
2018-10-07T16:09:24.178Z,1.57
2018-10-07T16:11:53.096Z,1.00
2018-10-07T16:14:21.998Z,4.72
2018-10-07T16:16:50.942Z,17.98
2018-10-07T16:19:19.869Z,2.15
2018-10-07T16:21:48.814Z,1.57
2018-10-07T16:24:17.803Z,1.17
2018-10-07T16:26:48.606Z,5.05
2018-10-07T16:29:17.534Z,5.22
2018-10-07T16:31:46.513Z,2.77
2018-10-07T16:34:15.493Z,4.53
2018-10-07T16:36:44.425Z,24.43
2018-10-07T16:39:13.406Z,6.03
2018-10-07T16:41:42.496Z,14.35
2018-10-07T16:44:11.417Z,10.30
2018-10-07T16:46:40.374Z,3.98
2018-10-07T16:49:09.308Z,3.98
2018-10-07T16:51:38.240Z,2.87
2018-10-07T16:54:07.379Z,4.42
2018-10-07T16:56:36.431Z,10.53
2018-10-07T16:59:05.499Z,2.00
2018-10-07T17:01:34.489Z,25.12
2018-10-07T17:04:03.517Z,5.60
2018-10-07T17:06:32.595Z,3.33
2018-10-07T17:09:01.581Z,1.70
2018-10-07T17:11:30.541Z,1.20
2018-10-07T17:13:59.431Z,3.25
2018-10-07T17:16:28.365Z,2.92
2018-10-07T17:18:57.283Z,1.72
2018-10-07T17:21:26.181Z,3.20
2018-10-07T17:23:55.104Z,3.00
2018-10-07T17:26:24.090Z,1.35
2018-10-07T17:28:53.041Z,2.00
2018-10-07T17:31:22.031Z,1.92
2018-10-07T17:33:51.327Z,1.30
2018-10-07T17:36:20.261Z,2.60
2018-10-07T17:38:49.202Z,2.65
2018-10-07T17:41:18.162Z,4.40
2018-10-07T17:43:47.079Z,1.40
2018-10-07T17:46:15.994Z,2.60
2018-10-07T17:48:45.017Z,3.45
2018-10-07T17:51:14.074Z,2.25
2018-10-07T17:53:43.036Z,1.75
2018-10-07T17:56:11.966Z,1.40
2018-10-07T17:58:40.895Z,1.67
2018-10-07T18:01:09.867Z,2.52
2018-10-07T18:03:38.814Z,2.60
2018-10-07T18:06:07.745Z,2.20
2018-10-07T18:08:37.128Z,2.85
2018-10-07T18:11:06.442Z,3.15
2018-10-07T18:13:35.556Z,1.70
2018-10-07T18:16:04.567Z,2.42
2018-10-07T18:18:33.535Z,3.00
2018-10-07T18:21:02.568Z,3.80
2018-10-07T18:23:31.702Z,1.95
2018-10-07T18:26:00.684Z,3.00
2018-10-07T18:28:29.606Z,2.42
2018-10-07T18:30:58.544Z,4.70
2018-10-07T18:33:27.497Z,3.85
2018-10-07T18:35:56.617Z,4.37
2018-10-07T18:38:25.552Z,4.67
2018-10-07T18:40:54.482Z,8.45
2018-10-07T18:43:23.401Z,4.95
2018-10-07T18:45:52.332Z,3.50
2018-10-07T18:48:21.241Z,3.15
2018-10-07T18:50:50.207Z,11.65
2018-10-07T18:53:19.178Z,10.95
2018-10-07T18:55:48.169Z,9.13
2018-10-07T18:58:17.131Z,14.03
2018-10-07T19:00:46.101Z,10.40
2018-10-07T19:03:15.049Z,13.20
2018-10-07T19:05:44.041Z,10.10
2018-10-07T19:08:13.023Z,7.75
2018-10-07T19:10:42.139Z,7.37
2018-10-07T19:13:11.092Z,7.08
2018-10-07T19:15:40.023Z,8.70
2018-10-07T19:18:08.949Z,8.43
2018-10-07T19:20:37.923Z,6.12
2018-10-07T19:23:06.872Z,6.35
2018-10-07T19:25:35.796Z,5.45
2018-10-07T19:28:05.482Z,5.37
2018-10-07T19:30:34.443Z,5.28
2018-10-07T19:33:03.422Z,9.00
2018-10-07T19:35:32.341Z,7.03
2018-10-07T19:38:01.270Z,7.40
2018-10-07T19:40:30.366Z,11.70
2018-10-07T19:42:59.272Z,6.22
2018-10-07T19:45:28.277Z,5.92
2018-10-07T19:47:57.351Z,5.03
2018-10-07T19:50:26.294Z,6.35
2018-10-07T19:52:55.247Z,4.42
2018-10-07T19:55:24.175Z,5.10
2018-10-07T19:57:53.282Z,5.95
2018-10-07T20:00:22.451Z,5.53
2018-10-07T20:02:51.386Z,6.45
2018-10-07T20:05:20.339Z,5.33
2018-10-07T20:07:49.255Z,7.20
2018-10-07T20:10:18.212Z,4.90
2018-10-07T20:12:47.110Z,5.67
2018-10-07T20:15:16.056Z,5.25
2018-10-07T20:17:44.972Z,5.92
2018-10-07T20:20:13.906Z,6.70
2018-10-07T20:22:42.826Z,9.45
2018-10-07T20:25:11.764Z,5.92
2018-10-07T20:27:40.675Z,5.60
2018-10-07T20:30:09.368Z,4.42
2018-10-07T20:32:38.281Z,6.12
2018-10-07T20:35:07.512Z,7.08
2018-10-07T20:37:36.453Z,5.60
2018-10-07T20:40:05.357Z,5.55
2018-10-07T20:42:34.298Z,6.62
2018-10-07T20:45:03.552Z,6.37
2018-10-07T20:47:32.490Z,6.85
2018-10-07T20:50:01.440Z,6.78
2018-10-07T20:52:30.363Z,7.58
2018-10-07T20:54:59.471Z,8.23
2018-10-07T20:57:28.390Z,5.70
2018-10-07T20:59:57.319Z,7.55
2018-10-07T21:02:26.234Z,7.62
2018-10-07T21:04:55.205Z,8.70
2018-10-07T21:07:24.152Z,7.58
2018-10-07T21:09:53.099Z,8.83
2018-10-07T21:12:22.007Z,9.13
2018-10-07T21:14:50.907Z,8.85
2018-10-07T21:17:19.829Z,9.13
2018-10-07T21:19:48.755Z,8.90
2018-10-07T21:22:17.682Z,8.80
2018-10-07T21:24:46.578Z,7.92
2018-10-07T21:27:15.513Z,9.43
2018-10-07T21:29:44.470Z,8.98
2018-10-07T21:32:13.557Z,7.87
2018-10-07T21:34:42.473Z,5.95
2018-10-07T21:37:11.395Z,6.60
2018-10-07T21:39:40.354Z,5.20
2018-10-07T21:42:09.250Z,5.25
2018-10-07T21:44:38.162Z,6.75
2018-10-07T21:47:07.408Z,7.22
2018-10-07T21:49:36.356Z,6.17
2018-10-07T21:52:05.408Z,5.80
2018-10-07T21:54:34.338Z,6.55
2018-10-07T21:57:03.238Z,5.83
2018-10-07T21:59:32.135Z,7.47
2018-10-07T22:02:00.516Z,5.45
2018-10-07T22:04:29.490Z,5.00
2018-10-07T22:06:58.428Z,8.60
2018-10-07T22:09:27.874Z,6.10
2018-10-07T22:11:56.288Z,7.60
2018-10-07T22:14:24.722Z,5.90
2018-10-07T22:16:53.092Z,7.15
2018-10-07T22:19:22.020Z,7.95
2018-10-07T22:21:50.917Z,6.62
2018-10-07T22:24:19.324Z,8.40
2018-10-07T22:26:47.708Z,7.20
2018-10-07T22:29:16.078Z,5.50
2018-10-07T22:31:44.497Z,5.53
2018-10-07T22:34:12.850Z,6.00
2018-10-07T22:36:41.240Z,6.40
2018-10-07T22:39:09.594Z,7.07
2018-10-07T22:41:38.052Z,6.93
2018-10-07T22:44:06.768Z,9.17
2018-10-07T22:46:35.110Z,5.25
2018-10-07T22:49:03.464Z,6.73
2018-10-07T22:51:31.810Z,7.83
2018-10-07T22:54:00.179Z,5.90
2018-10-07T22:56:28.511Z,7.97
2018-10-07T22:58:56.879Z,5.10
2018-10-07T23:01:25.250Z,5.43
2018-10-07T23:03:53.570Z,8.27
2018-10-07T23:06:21.922Z,5.97
2018-10-07T23:08:50.261Z,6.80
2018-10-07T23:11:18.619Z,7.87
2018-10-07T23:13:46.998Z,7.17
2018-10-07T23:16:15.346Z,6.83
2018-10-07T23:18:43.730Z,7.00
2018-10-07T23:21:12.076Z,7.17
2018-10-07T23:23:40.425Z,7.63
2018-10-07T23:26:08.901Z,4.90
2018-10-07T23:28:37.265Z,8.77
2018-10-07T23:31:05.999Z,8.30
2018-10-07T23:33:34.357Z,8.63
2018-10-07T23:36:02.726Z,7.40
2018-10-07T23:38:31.113Z,6.87
2018-10-07T23:40:59.497Z,5.43
2018-10-07T23:43:27.852Z,5.87
2018-10-07T23:45:56.286Z,6.07
2018-10-07T23:48:24.668Z,6.63
2018-10-07T23:50:53.042Z,6.00
2018-10-07T23:53:21.414Z,6.97
2018-10-07T23:55:49.772Z,7.20
2018-10-07T23:58:18.113Z,7.27
